x

8454000 - Providence, Ri (foxr1) Weather Station

2:30 - Sun 23rd Apr 2017 All times are EDT. -4 hours from GMT.

  • Wind
    10mph, 11mph gusts
  • Sea Temp 46°f
  • Luft Temp 58°f
  • Sea Pressure 1017.2mb
  • 8454000 - Providence, Ri
  • 8454000 - Providence, Ri

More Historic Weather Station data

Upgrade to MSW Pro to gain access to the past 30 days of data for over 8000 Wavebouys and Weather Stations around the globe.

Join Pro

Comparision Forecast

View Surf forecast
   
So 04/23 2:30 10 11 mph 1017.2mb 46f 58f
2:24 9 13 mph 1017.3mb 46f 58f
2:18 11 14 mph 1017.3mb 46f 58f
2:12 9 13 mph 1017.3mb 46f 58f
2:06 7 10 mph 1017.5mb 46f 57f
2:00 8 9 mph 1017.6mb 46f 57f
1:54 7 8 mph 1017.6mb 46f 57f
1:48 5 6 mph 1017.6mb 46f 58f
1:42 6 8 mph 1017.6mb 46f 57f
1:36 6 7 mph 1017.6mb 46f 57f
1:30 7 11 mph 1017.7mb 46f 57f
1:24 6
mph
1017.7mb 46f 57f
1:18 2 3 mph 1017.7mb 46f 56f
1:12 3 5 mph 1017.6mb 46f 56f
1:06 3 6 mph 1017.6mb 46f 56f
1:00 2 3 mph 1017.7mb 46f 56f
12:54 3
mph
1017.8mb 46f 55f
12:48 2 5 mph 1017.8mb 46f 56f
12:42 5 6 mph 1017.9mb 46f 55f
12:36 5 7 mph 1018mb 47f 55f
12:30 5 6 mph 1018mb 47f 55f
12:24 2 7 mph 1018.1mb 47f 55f
12:18 5 6 mph 1018.2mb 47f 55f
12:12 3 5 mph 1018.2mb 47f 54f
12:06 3 6 mph 1018.2mb 47f 54f
12:00 5 6 mph 1018.2mb 46f 53f
11:54 3 5 mph 1018.2mb 46f 54f
11:48 3 5 mph 1018.1mb 46f 54f
11:42 1 2 mph 1018.2mb 46f 55f
11:36 2 5 mph 1018.2mb 46f 54f
11:30 2 6 mph 1018.3mb 46f 54f
11:24 2 6 mph 1018.3mb 46f 53f
11:18 3 6 mph 1018.3mb 46f 53f
11:12 3 7 mph 1018.3mb 46f 53f
11:06 6 8 mph 1018.2mb 46f 53f
11:00 5 7 mph 1018.3mb 46f 53f
10:54 6 8 mph 1018.3mb 46f 53f
10:48 1 8 mph 1018.3mb 46f 53f
10:42 5 9 mph 1018.3mb 46f 53f
10:36 6 8 mph 1018.3mb 46f 52f
10:30 6 8 mph 1018.3mb 46f 52f
10:24 2 6 mph 1018.3mb 46f 53f
10:18 5 9 mph 1018.3mb 46f 52f
10:12 3 8 mph 1018.3mb 46f 52f
10:06 5 10 mph 1018.3mb 46f 51f
10:00 6 10 mph 1018.2mb 45f 52f
9:54 6 9 mph 1018.1mb 45f 52f
9:48 7 10 mph - - -
9:42 5 13 mph 1018.1mb 45f 51f
9:36 6 11 mph 1018mb 45f 51f
9:30 7 14 mph 1017.8mb 45f 50f
9:24 10 15 mph 1017.8mb 45f 50f
9:18 10 14 mph 1017.9mb 45f 50f
9:12 9 15 mph 1017.9mb 45f 51f
9:06 10 14 mph 1017.9mb 45f 50f
9:00 6 15 mph 1017.9mb 45f 51f
8:54 8 15 mph 1017.9mb 45f 49f
8:48 11 15 mph 1018mb 45f 49f
8:42 13 17 mph 1017.9mb 45f 49f
8:36 11 15 mph 1018mb 45f 49f
8:30 9 16 mph 1018mb 44f 49f
8:24 9 15 mph 1017.9mb 44f 49f
8:18 9 16 mph 1017.9mb 44f 49f
8:12 13 17 mph 1017.8mb 45f 48f
8:06 11 17 mph 1017.8mb 45f 48f
8:00 8 14 mph 1017.6mb 45f 48f
7:54 7 15 mph 1017.5mb 45f 48f
7:48 10 16 mph 1017.5mb 45f 47f
7:42 9 14 mph 1017.5mb 45f 47f
7:36 9 13 mph 1017.5mb 45f 47f
7:30 6 10 mph 1017.4mb 45f 46f
7:24 6 11 mph 1017.3mb 45f 46f
7:18 9 13 mph 1017.2mb 45f 45f
7:12 9 13 mph 1017.2mb 45f 45f
7:06 7 13 mph 1017mb 45f 45f
7:00 10 14 mph 1017.1mb 45f 44f
6:54 6 10 mph 1017mb 45f 44f
6:48 5 8 mph 1016.8mb 45f 44f
6:42 5 7 mph 1016.7mb 45f 44f
6:36 5 7 mph 1016.6mb 45f 44f
6:30 5 6 mph 1016.5mb 45f 44f
6:24 5 6 mph 1016.3mb 46f 43f
6:18 3 7 mph 1016.2mb 46f 44f
6:12 7 10 mph 1016.3mb 46f 44f
6:06 5 10 mph 1016.2mb 46f 44f
6:00 7 9 mph 1016.2mb 46f 44f
5:54 7 10 mph 1016.1mb 46f 44f
5:48 6 9 mph 1016.1mb 46f 44f
5:42 8 9 mph 1015.8mb 46f 44f
5:36 6 10 mph 1015.8mb 46f 44f
5:30 8 9 mph 1015.7mb 46f 44f
5:24 7 10 mph 1015.5mb 46f 44f
5:18 8 11 mph 1015.4mb 46f 44f
5:12 8 11 mph 1015.5mb 46f 44f
5:06 9 13 mph 1015.5mb 46f 44f
5:00 10 13 mph 1015.4mb 46f 44f
4:54 9 11 mph 1015.6mb 46f 44f
4:48 7 11 mph 1015.5mb 46f 45f
4:42 7 10 mph 1015.5mb 46f 45f
4:36 7 10 mph 1015.3mb 46f 44f
4:30 7 9 mph 1015.4mb 47f 44f
4:24 7 9 mph 1015.3mb 47f 44f
4:18 7 10 mph 1015.3mb 47f 45f
4:12 5 7 mph 1015.2mb 47f 44f
4:06 3 7 mph 1015.1mb 46f 45f
4:00 5 6 mph 1015.1mb 46f 45f
3:54 5 6 mph 1015.1mb 46f 45f
3:48 5 7 mph 1015.2mb 46f 45f
3:42 6 8 mph 1015.1mb 47f 45f
3:36 5 9 mph 1015.1mb 47f 45f
3:30 7 9 mph 1015mb 47f 45f
3:24 3 8 mph 1015.1mb 47f 45f
3:18 6 7 mph 1014.7mb 47f 45f
3:12 5 6 mph 1014.7mb 47f 45f
3:06 5 7 mph 1014.8mb 47f 45f
3:00 5 6 mph 1015.1mb 47f 44f
2:54 5 6 mph 1014.9mb 47f 44f
2:48 5 7 mph - - -
2:42 5 7 mph 1014.8mb 46f 44f
2:36 3 6 mph 1014.8mb 46f 44f
2:30 5 6 mph 1014.8mb 46f 44f
2:24 5 7 mph 1014.9mb 46f 44f
2:18 5 6 mph 1014.9mb 46f 45f
2:12 7 8 mph 1014.9mb 46f 45f
2:06 3 6 mph 1014.9mb 46f 45f
2:00 2 6 mph 1014.8mb 46f 45f
1:54 3 5 mph 1014.9mb 47f 45f
1:48 2 5 mph 1014.9mb 47f 45f
1:42 3 7 mph 1015.1mb 47f 44f
1:36 7 8 mph 1015.1mb 47f 44f
1:30 6 8 mph 1015.2mb 47f 44f
1:24 5 7 mph 1015.2mb 47f 44f
1:18 2 6 mph 1015.1mb 47f 44f
1:12 3 7 mph 1015mb 47f 45f
1:06 7 8 mph 1015.1mb 47f 45f
1:00 6 7 mph 1015.1mb 47f 45f
12:54 3 6 mph 1015mb 47f 45f
12:48 3 6 mph 1014.9mb 47f 45f
12:42 2 6 mph 1014.9mb 47f 45f
12:36 3 6 mph 1014.8mb 47f 45f
12:30 3 5 mph 1014.8mb 47f 45f
12:24 3 6 mph 1014.8mb 47f 45f
12:18 3 6 mph 1014.7mb 47f 45f
12:12 2 6 mph 1014.5mb 47f 45f
12:06 3 7 mph 1014.5mb 47f 45f
12:00 5 7 mph 1014.2mb 47f 45f
Sa 04/22 11:54 5 7 mph 1014.3mb 47f 45f
11:48 5 7 mph 1014.3mb 47f 45f
11:42 5 8 mph 1014.4mb 47f 45f
11:36 6 8 mph 1014.1mb 47f 46f
11:30 5 7 mph 1014.1mb 47f 46f
11:24 5 6 mph 1014.1mb 47f 46f
11:18 5 8 mph 1014.2mb 47f 46f
11:12 5 8 mph 1014.2mb 47f 46f
11:06 5 8 mph 1014.2mb 47f 46f
11:00 5 7 mph 1014.1mb 47f 46f
10:54 5 6 mph 1013.9mb 47f 46f
10:48 6 8 mph 1013.9mb 47f 46f
10:42 6 8 mph 1014mb 47f 46f
10:36 7 10 mph 1014mb 47f 46f
10:30 6 9 mph 1014mb 47f 46f
10:24 6 9 mph 1014.1mb 47f 46f
10:18 5 9 mph - - -
10:12 6 9 mph 1014.1mb 47f 46f
10:06 6 9 mph 1014mb 47f 46f
10:00 5 8 mph 1013.9mb 47f 46f
9:48 3 8 mph 1014.1mb 46f 46f
9:42 7 9 mph 1014.1mb 46f 46f
9:36 5 11 mph 1014mb 46f 46f
9:30 6 10 mph 1014mb 46f 46f
9:24 8 10 mph 1014mb 46f 46f
9:18 6 9 mph 1014.1mb - -
9:12 8 11 mph 1014.1mb 46f 46f
9:06 6 10 mph 1014mb 46f 46f
9:00 7 10 mph 1014mb 46f 46f
8:48 6 11 mph 1013.8mb 45f 46f
8:42 5 8 mph 1013.7mb 45f 46f
8:36 3 8 mph 1013.7mb 45f 47f
8:30 6 8 mph 1013.7mb 45f 47f
8:24 3 7 mph 1013.6mb 45f 47f
8:18 5 10 mph 1013.6mb 45f 47f
8:12 6 9 mph 1013.5mb 45f 47f
8:06 6 9 mph 1013.4mb 45f 47f
8:00 5 9 mph 1013.4mb 45f 47f
7:48 6 11 mph - - -
7:42 8 11 mph 1013.1mb 45f 47f
7:36 6 10 mph 1013mb 45f 47f
7:30 7 10 mph 1012.9mb 45f 47f
7:24 5 8 mph 1012.9mb 46f 47f
7:12 6 10 mph 1013.1mb 46f 47f
7:06 8 11 mph 1013.1mb 46f 47f
7:00 7 10 mph 1012.9mb 46f 47f
6:48 8 13 mph - - -
6:42 6 14 mph 1012.6mb 46f 47f
6:36 9 13 mph 1012.7mb 46f 47f
6:30 7 11 mph 1012.7mb 46f 47f
6:24 7 11 mph 1012.7mb 46f 47f
6:18 7 15 mph 1012.8mb 46f 47f
6:12 6 10 mph 1012.8mb 46f 47f
6:06 5 9 mph 1012.8mb 46f 47f
6:00 5 9 mph 1012.7mb 46f 47f
5:48 2 7 mph 1012.9mb - -
5:42 5 8 mph 1012.8mb 47f 47f
5:36 5 10 mph 1012.6mb 47f 47f
5:30 6 13 mph 1012.5mb 47f 47f
5:24 6 13 mph 1012.5mb 47f 47f
5:18 6 13 mph 1012.7mb 47f 47f
5:12 6 10 mph 1012.7mb 47f 47f
5:06 5 9 mph 1012.5mb 47f 47f
5:00 5 13 mph 1012.6mb 47f 47f
4:54 8 11 mph 1012.6mb 47f 47f
4:48 8 13 mph 1012.6mb 47f 47f
4:42 8 11 mph 1012.5mb 47f 47f
4:36 7 11 mph 1012.4mb 47f 47f
4:30 8 14 mph 1012.4mb 47f 47f
4:24 10 15 mph 1012.3mb 48f 47f
4:18 9 14 mph 1012.4mb 48f 47f
4:12 6 11 mph 1012.4mb 48f 47f
4:06 9 13 mph 1012.4mb 48f 47f
4:00 8 15 mph 1012.4mb 48f 47f
3:54 8 14 mph 1012.2mb 48f 47f
3:48 8 14 mph 1012.1mb 48f 47f
3:42 11 16 mph 1012mb 48f 47f
3:36 10 14 mph 1011.8mb 48f 47f
3:30 6 13 mph 1011.8mb 48f 47f
3:24 8 14 mph 1011.7mb 48f 47f
3:18 7 13 mph 1011.9mb 48f 47f
3:12 10 15 mph 1011.8mb 48f 47f
3:06 10 14 mph 1011.7mb 48f 47f
3:00 6 11 mph 1011.8mb 48f 47f
2:54 6 13 mph 1011.7mb 48f 47f
2:48 7 9 mph 1011.7mb 48f 47f
2:42 3 8 mph 1011.6mb 48f 47f
2:36 5 9 mph 1011.8mb 48f 46f
2:30 7 11 mph 1011.8mb 48f 46f
2:24 3 11 mph 1011.8mb 48f 46f
2:18 5 9 mph 1012mb 48f 46f
2:12 3 8 mph 1012mb 48f 46f
2:06 3 9 mph 1012.3mb 48f 46f
2:00 5 8 mph 1012.3mb 49f 46f
1:54 5 8 mph 1012.1mb 49f 46f
1:48 5 8 mph - - -
1:42 7 10 mph 1012.3mb 49f 46f
1:36 7 13 mph 1012.5mb 49f 46f
1:30 7 13 mph 1012.5mb 49f 46f
1:24 9 14 mph 1012.6mb 49f 46f
1:18 9 13 mph 1012.6mb 49f 46f
1:12 6 10 mph 1012.5mb 49f 46f
1:06 8 15 mph 1012.8mb 49f 46f
1:00 9 15 mph 1012.9mb 49f 46f
12:54 9 15 mph 1013.2mb 49f 46f
12:48 8 14 mph - - -
12:42 10 15 mph 1013.1mb 49f 46f
12:36 6 13 mph 1013mb 49f 46f
12:30 7 11 mph 1013.1mb 49f 46f
12:24 8 13 mph 1013mb 49f 46f
12:18 6 10 mph 1012.8mb 49f 46f
12:12 6 9 mph 1012.9mb 49f 46f
12:06 5 10 mph 1012.9mb 49f 46f
12:00 5 8 mph 1012.9mb 49f 46f
11:54 3 8 mph 1013mb 49f 46f
11:48 5 7 mph 1012.9mb 49f 46f
11:42 5 10 mph 1012.9mb 49f 46f
11:36 5 9 mph 1012.7mb 50f 46f
11:30 6 11 mph 1012.7mb 50f 46f
11:24 6 9 mph 1012.8mb 50f 46f
11:18 5 13 mph 1012.7mb 50f 46f
11:12 6 11 mph 1012.7mb 50f 46f
11:06 7 16 mph 1012.9mb 50f 46f
11:00 5 13 mph 1012.8mb 50f 46f
10:54 11 17 mph 1013mb 50f 46f
10:48 10 17 mph 1013mb 50f 45f
10:42 10 16 mph 1013.1mb 50f 45f
10:36 11 15 mph 1013.3mb 50f 46f
10:30 8 16 mph 1013.1mb 50f 46f
10:24 8 14 mph 1013mb 50f 46f
10:18 8 13 mph - - -
10:12 7 14 mph 1012.6mb 50f 46f
10:06 8 13 mph 1012.5mb 50f 46f
10:00 7 14 mph 1012.8mb 50f 46f
9:54 9 15 mph 1012.8mb 50f 46f
9:48 8 14 mph 1012.7mb 49f 46f
9:42 7 15 mph 1012.8mb 49f 46f
9:36 8 16 mph 1012.8mb 49f 46f
9:30 9 15 mph 1012.7mb 49f 46f
9:24 7 14 mph 1012.9mb 49f 46f
9:18 6 13 mph 1012.7mb 49f 46f
9:12 6 11 mph 1012.7mb 49f 46f
9:06 7 13 mph 1012.9mb 49f 46f
9:00 8 15 mph 1013.1mb 49f 45f
8:54 6 14 mph 1013mb 49f 46f
8:48 6 13 mph 1013mb 49f 45f
8:42 7 13 mph 1012.9mb 49f 45f
8:36 3 11 mph 1012.9mb 49f 45f
8:30 3 14 mph 1012.9mb 49f 45f
8:24 3 9 mph 1013mb 49f 45f
8:18 3 10 mph 1013.1mb 49f 45f
8:12 6 11 mph 1013mb 49f 45f
8:06 6 9 mph 1013.1mb 48f 45f
8:00 5 9 mph 1012.8mb 48f 45f
7:54 5 8 mph 1012.8mb 48f 45f
7:48 3 10 mph 1012.7mb 48f 45f
7:42 5 11 mph 1012.6mb 48f 45f
7:36 3 8 mph 1012.6mb 48f 45f
7:30 5 10 mph 1012.5mb 48f 45f
7:24 6 10 mph 1012.7mb 48f 45f
7:18 6 11 mph 1012.7mb 48f 45f
7:12 5 10 mph 1012.7mb 48f 45f
7:06 6 9 mph 1012.8mb 48f 45f
7:00 3 8 mph 1012.7mb 48f 45f
6:54 5 7 mph 1012.7mb 48f 45f
6:48 2 13 mph 1012.7mb 48f 45f
6:42 5 10 mph 1012.8mb 48f 45f
6:36 5 10 mph 1012.7mb 48f 45f
6:30 3 11 mph 1012.7mb 48f 45f
6:24 5 8 mph 1012.6mb 48f 45f
6:18 3 13 mph 1012.9mb 48f 45f
6:12 7 13 mph 1013mb 48f 45f
6:06 5 11 mph 1012.7mb 48f 45f
6:00 3 9 mph 1012.3mb 48f 45f
5:54 5 14 mph 1012.4mb 48f 45f
5:48 6 13 mph 1012.3mb 48f 45f
5:42 5 13 mph 1012.4mb 48f 45f
5:36 6 14 mph 1012.4mb 48f 45f
5:30 6 14 mph 1012.6mb 48f 45f
5:24 7 11 mph 1012.5mb 48f 45f
5:18 5 11 mph 1012.5mb 48f 46f
5:12 5 10 mph 1012.5mb 48f 45f
5:06 6 11 mph 1012.6mb 48f 45f
5:00 5 13 mph 1012.6mb 48f 46f
4:54 5 13 mph 1012.4mb 48f 46f
4:48 5 9 mph 1012.5mb 48f 45f
4:42 3 10 mph 1012.6mb 48f 46f
4:36 6 10 mph 1012.4mb 48f 46f
4:30 5 10 mph 1012.6mb 48f 46f
4:24 7 10 mph 1012.6mb 48f 45f
4:18 6 10 mph 1012.6mb 48f 45f
4:12 6 10 mph 1012.6mb 48f 45f
4:06 6 10 mph 1012.6mb 48f 46f
4:00 6 10 mph 1012.8mb 48f 46f
3:54 2 6 mph 1012.9mb 48f 46f
3:48 3 9 mph 1012.8mb 48f 46f
3:42 5 9 mph 1012.8mb 48f 46f
3:36 6 10 mph 1012.9mb 48f 46f
3:30 6 13 mph 1013.1mb 48f 46f
3:24 7 14 mph 1013.2mb 48f 46f
3:18 5 10 mph 1013.2mb 48f 46f
3:12 7 15 mph 1012.7mb 48f 46f
3:06 6 10 mph 1012.7mb 48f 46f
3:00 8 13 mph 1012.8mb 48f 46f
2:54 5 8 mph 1012.5mb 48f 46f
2:48 5 8 mph 1012.4mb 48f 46f
2:42 3 9 mph 1012.6mb 48f 46f
2:36 5 10 mph 1012.7mb 48f 47f
2:30 5 9 mph 1012.8mb 49f 47f
2:24 3 8 mph 1012.8mb 49f 47f
2:18 3 9 mph 1013mb 49f 47f
2:12 3 9 mph 1013mb 49f 46f
2:06 6 10 mph 1013.1mb 49f 47f
2:00 3 10 mph 1012.9mb 49f 47f
1:54 3 8 mph 1012.9mb 49f 47f
1:48 3 7 mph 1012.9mb 49f 47f
1:42 5 7 mph 1012.9mb 49f 47f
1:36 3 8 mph 1013.1mb 50f 47f
1:30 3 7 mph 1013.1mb 50f 47f
1:24 5 8 mph 1013.1mb 50f 47f
1:18 2 7 mph 1013.1mb 50f 47f
1:12 5 7 mph 1013.1mb 50f 47f
1:06 3 6 mph 1013.2mb 50f 47f
1:00 3 7 mph 1013.3mb 50f 47f
12:54 5 7 mph 1013.2mb 50f 47f
12:48 5 7 mph 1013.4mb 50f 47f
12:42 3 7 mph 1013.5mb 50f 47f
12:36 2 8 mph 1013.6mb 50f 47f
12:30 1 5 mph 1013.7mb 50f 47f
12:24 2 5 mph 1013.8mb 50f 47f
12:18 2 3 mph 1013.9mb 50f 47f
12:12 3 7 mph 1013.8mb 50f 48f
12:06 3 7 mph 1013.8mb 50f 48f
12:00 2 7 mph 1013.8mb 50f 48f
Fr 04/21 11:54 3 6 mph 1013.7mb 50f 48f
11:48 3 5 mph 1013.7mb 50f 48f
11:42 2 5 mph 1013.7mb 50f 48f
11:36 3 6 mph 1013.7mb 50f 48f
11:30 2 5 mph 1013.7mb 50f 48f
11:24 2 5 mph 1013.9mb 50f 48f
11:18 2 6 mph 1013.9mb 50f 48f
11:12 2 6 mph 1014mb 50f 48f
11:06 3 6 mph 1013.9mb 50f 47f
11:00 2 6 mph 1013.9mb 50f 48f
10:54 3 6 mph 1014mb 50f 48f
10:48 6 7 mph - - -
10:42 2 5 mph 1014.1mb 50f 48f
10:36 2 6 mph 1014.2mb 50f 48f
10:30 3 6 mph 1014.1mb 50f 48f
10:24 5 8 mph 1014.1mb 50f 47f
10:18 2 6 mph 1014.2mb 50f 48f
10:12 1 6 mph 1014.4mb 50f 48f
10:06 2 5 mph 1014.5mb 50f 48f
10:00 2 5 mph 1014.6mb 50f 48f
9:48 2 5 mph 1014.6mb - -
9:42 2 3 mph 1014.7mb 50f 48f
9:36 2 6 mph 1014.9mb 50f 47f
9:30 3 5 mph 1014.8mb 50f 47f
9:24 3 7 mph 1014.8mb 49f 47f
9:18 5 7 mph 1014.7mb 49f 47f
9:12 6 7 mph 1014.5mb 49f 47f
9:06 3 7 mph 1014.6mb 49f 47f
9:00 6 8 mph 1014.5mb 49f 47f
8:48 6 7 mph 1014.4mb 49f 47f
8:42 3 6 mph 1014.5mb 49f 47f
8:36 5 7 mph 1014.3mb 49f 47f
8:30 6 7 mph 1014.4mb 49f 47f
8:24 6 9 mph 1014.4mb 49f 47f
8:18 6 8 mph - - -
8:12 6 7 mph 1014.4mb 49f 47f
8:06 5 7 mph 1014.3mb 48f 47f
8:00 5 7 mph 1014.4mb 48f 47f
7:48 5 8 mph 1014.3mb 48f 47f
7:42 5 7 mph 1014.1mb 48f 47f
7:36 6 8 mph 1014.1mb 48f 47f
7:30 5 7 mph 1013.9mb 48f 47f
7:24 7 9 mph 1013.8mb 48f 47f
7:12 5 6 mph 1013.7mb 48f 47f
7:06 5 6 mph 1013.7mb 48f 48f
7:00 5 9 mph 1013.5mb 48f 47f
6:48 7 10 mph 1013.4mb 48f 47f
6:42 9 14 mph 1013.4mb 48f 48f
6:36 9 11 mph 1013.4mb 48f 47f
6:30 7 10 mph 1013.7mb 48f 48f
6:24 9 11 mph 1013.6mb 48f 47f
6:18 8 10 mph - - -
6:12 6 9 mph 1014.2mb 48f 48f
6:06 8 11 mph 1014.2mb 48f 47f
6:00 7 9 mph 1014.4mb 48f 47f
5:48 8 9 mph 1014.6mb 48f 47f
5:42 8 11 mph 1014.6mb 48f 47f
5:36 5 8 mph 1014.6mb 48f 48f
5:30 6 8 mph 1014.6mb 48f 48f
5:24 8 10 mph 1014.5mb 48f 48f
5:18 7 13 mph 1014.5mb 48f 48f
5:12 9 11 mph 1014.3mb 48f 48f
5:06 8 11 mph 1014.2mb 48f 48f
5:00 9 14 mph 1014.2mb 48f 48f
4:54 10 14 mph 1014.2mb 48f 48f
4:48 8 11 mph 1014.2mb 48f 48f
4:42 7 9 mph 1014.1mb 48f 48f
4:36 7 13 mph 1014.1mb 48f 47f
4:30 8 10 mph 1014.2mb 48f 48f
4:24 6 9 mph 1014.2mb 48f 48f
4:18 8 10 mph 1014.1mb 48f 48f
4:12 8 10 mph 1014.2mb 48f 48f
4:06 10 13 mph 1014.2mb 48f 48f
4:00 8 13 mph 1014.1mb 48f 48f
3:54 9 11 mph 1014.2mb 48f 48f
3:48 6 8 mph 1014.2mb 48f 47f
3:42 8 13 mph 1014.4mb 48f 48f
3:36 10 13 mph 1014.3mb 48f 48f
3:30 7 10 mph 1014.5mb 48f 48f
3:24 7 9 mph 1014.7mb 48f 48f
3:18 7 10 mph 1014.8mb 48f 48f
3:12 10 15 mph 1014.8mb 48f 48f
3:06 10 13 mph 1014.7mb 48f 48f
3:00 7 9 mph 1014.6mb 48f 48f
2:54 8 11 mph 1014.7mb 48f 48f
2:48 9 11 mph 1014.8mb 48f 48f
2:42 9 16 mph 1015mb 48f 48f
2:36 11 20 mph 1015.1mb 48f 48f
2:30 9 18 mph 1014.9mb 48f 47f
2:24 10 17 mph 1014.9mb 48f 48f
2:18 11 20 mph 1014.9mb 48f 48f
2:12 13 21 mph 1014.8mb 48f 48f
2:06 13 16 mph 1015.1mb 48f 48f
2:00 14 16 mph 1015.4mb 48f 48f
1:54 10 14 mph 1015.7mb 49f 48f
1:48 10 15 mph 1015.7mb 49f 48f
1:42 14 20 mph 1015.7mb 49f 47f
1:36 9 13 mph 1015.5mb 49f 47f
1:30 10 16 mph 1015.4mb 49f 47f
1:24 10 15 mph 1015.4mb 49f 47f
1:18 9 16 mph 1015.5mb 49f 47f
1:12 11 14 mph 1015.6mb 49f 47f
1:06 10 14 mph 1015.6mb 49f 47f
1:00 10 14 mph 1016mb 50f 47f
12:54 10 13 mph 1016.1mb 50f 47f
12:48 9 13 mph 1016.1mb 50f 47f
12:42 10 14 mph 1016.2mb 50f 47f
12:36 9 13 mph 1016.4mb 50f 47f
12:30 8 13 mph 1016.4mb 50f 47f
12:24 10 13 mph 1016.2mb 50f 47f
12:18 9 15 mph 1016.1mb 50f 47f
12:12 13 18 mph 1015.9mb 50f 47f
12:06 13 16 mph 1015.8mb 50f 47f
12:00 8 13 mph 1015.9mb 50f 47f
11:54 9 14 mph 1016mb 50f 47f
11:48 10 16 mph 1016mb 50f 47f
11:42 13 17 mph 1016.1mb 50f 47f
11:36 15 18 mph 1016.3mb 50f 47f
11:30 11 16 mph 1016.4mb 50f 47f
11:24 11 14 mph 1016.5mb 50f 47f
11:18 11 14 mph 1016.4mb 50f 47f
11:12 9 14 mph 1016.6mb 50f 47f
11:06 8 13 mph 1016.6mb 50f 47f
11:00 8 13 mph 1016.7mb 50f 47f
10:54 10 14 mph 1016.7mb 50f 47f
10:48 11 14 mph 1016.8mb 50f 47f
10:42 7 10 mph 1016.6mb 50f 47f
10:36 10 11 mph 1016.8mb 50f 47f
10:30 8 11 mph 1016.7mb 50f 47f
10:24 9 11 mph 1017mb 50f 47f
10:18 6 9 mph 1017mb 50f 47f
10:12 7 10 mph 1017.2mb 50f 47f
10:06 3 8 mph 1017.2mb 50f 47f
10:00 6 8 mph 1017.2mb 50f 47f
9:30 5 6 mph 1017.4mb 50f 47f
9:24 3 7 mph 1017.2mb 50f 47f
9:18 2 6 mph 1017.2mb 50f 47f
9:12 2 6 mph 1017.2mb 50f 47f
9:06 3 8 mph 1017mb 50f 47f
9:00 2 8 mph 1017mb 50f 47f
8:54 7 10 mph 1016.7mb 50f 46f
8:48 9 11 mph 1016.8mb 50f 46f
8:42 5 8 mph 1016.9mb 50f 46f
8:36 7 11 mph 1016.8mb 49f 46f
8:30 8 11 mph 1016.9mb 49f 46f
8:24 7 10 mph 1016.9mb 49f 46f
8:18 5 7 mph 1017.2mb 49f 46f
8:12 2 8 mph 1017.2mb 49f 46f
8:06 7 10 mph 1017mb 49f 46f
8:00 7 10 mph 1017.1mb 49f 46f
7:54 5 9 mph 1017.1mb 49f 46f
7:48 9 15 mph 1017mb 49f 46f
7:42 8 11 mph 1017mb 49f 47f
7:36 7 14 mph 1018.3mb 49f 47f
7:30 6 9 mph 1018mb 49f 47f
7:24 3 6 mph 1017.4mb 48f 46f
7:18 7 11 mph 1017.1mb 48f 47f
7:12 9 13 mph 1016.9mb 48f 47f
7:06 7 10 mph 1017.1mb 48f 47f
7:00 5 8 mph 1017.2mb 48f 47f
6:54 6 8 mph 1017.2mb 48f 47f
6:48 5 7 mph 1017.2mb 48f 47f
6:42 5 10 mph 1017.2mb 48f 47f
6:36 2 8 mph 1017.2mb 48f 47f
6:30 5 8 mph 1017.2mb 48f 47f
6:24 5 7 mph 1017mb 48f 47f
6:18 3 8 mph 1016.8mb 48f 47f
6:12 3 7 mph 1016.8mb 48f 47f
6:06 5 7 mph 1016.8mb 48f 47f
6:00 2 6 mph 1016.8mb 48f 47f
5:54 3 6 mph 1016.8mb 48f 47f
5:48 2 7 mph 1016.7mb 48f 47f
5:42 3 8 mph 1016.7mb 48f 47f
5:36 5 7 mph 1016.6mb 48f 47f
5:30 3 6 mph 1016.7mb 48f 47f
5:24 5 8 mph 1016.7mb 48f 47f
5:18 3 5 mph 1016.9mb 48f 47f
5:12 3 5 mph 1017.1mb 48f 47f
5:06 2 6 mph 1016.8mb 48f 47f
5:00 3 5 mph 1016.8mb 48f 47f
4:54 3 6 mph 1016.8mb 48f 47f
4:48 6 7 mph 1016.7mb 48f 47f
4:42 3 6 mph - 48f 47f
4:36 1 5 mph 1016.7mb 48f 47f
4:30 5 10 mph 1016.5mb 48f 46f
4:24 9 11 mph 1016.3mb 48f 46f
4:18 7 9 mph 1016.9mb 48f 46f
4:12 7 10 mph 1016.9mb 48f 47f
4:06 7 11 mph 1016.8mb 48f 47f
4:00 7 10 mph 1016.8mb 48f 47f
3:54 8 10 mph 1016.9mb 48f 47f
3:48 7 10 mph 1016.8mb 48f 47f
3:42 10 13 mph 1016.9mb 48f 47f
3:36 5 10 mph 1016.9mb 49f 47f
3:30 5 13 mph 1017mb 49f 47f
3:24 8 11 mph 1017mb 49f 47f
3:18 6 11 mph 1016.8mb 49f 47f
3:12 9 15 mph 1016.8mb 49f 47f
3:06 9 13 mph 1017.1mb 49f 47f
3:00 9 13 mph 1017.1mb 49f 47f
2:54 6 9 mph 1017.5mb 49f 47f
2:48 6 10 mph 1017.7mb 49f 47f
2:42 3 8 mph 1017.8mb 49f 47f
2:36 6 8 mph 1018.2mb 49f 47f
2:30 5 9 mph 1018.2mb 49f 47f
2:24 3 7 mph 1018.2mb 49f 47f
2:18 6 10 mph 1018.3mb 49f 47f
2:12 6 8 mph 1018.2mb 49f 47f
2:06 7 10 mph 1018.2mb 49f 47f
2:00 7 13 mph 1018.3mb 49f 47f
1:54 9 13 mph 1018.5mb 49f 47f
1:48 5 8 mph 1018.6mb 49f 47f
1:42 6 10 mph - - -
1:36 6 10 mph - - -
1:30 5 11 mph 1018.7mb 49f 48f
1:24 6 11 mph 1018.7mb 49f 48f
1:18 7 9 mph 1018.9mb 49f 48f
1:12 7 9 mph 1018.9mb 49f 48f
1:06 5 8 mph 1019.1mb 49f 48f
1:00 2 8 mph 1019.1mb 49f 48f
12:54 6 9 mph 1019.1mb 50f 48f
12:48 5 7 mph - - -
12:42 5 7 mph 1019.3mb 50f 48f
12:36 3 8 mph 1019.3mb 50f 49f
12:30 2 9 mph 1019.3mb 51f 48f
12:24 3 7 mph 1019.2mb 51f 48f
12:18 5 10 mph 1019.2mb 51f 48f
12:12 3 11 mph 1019.2mb 51f 49f
12:06 6 9 mph 1019mb 51f 48f
12:00 3 7 mph 1019mb 51f 48f
Do 04/20 11:54 5 7 mph 1019.1mb 51f 48f
11:48 2 8 mph 1019.2mb 51f 48f
11:42 2 9 mph 1019.2mb 51f 49f
11:36 3 7 mph 1018.8mb 52f 49f
11:30 5 7 mph 1018.7mb 52f 48f
11:24 5 8 mph 1018.6mb 52f 48f
11:18 5 8 mph 1018.6mb 52f 48f
11:12 5 8 mph 1018.7mb 52f 48f
11:06 3 9 mph 1018.8mb 52f 48f
11:00 5 7 mph 1018.9mb 52f 48f
10:54 5 10 mph 1019.1mb 52f 48f
10:48 5 9 mph 1018.8mb 52f 49f
10:42 7 9 mph 1018.8mb 52f 48f
10:36 3 8 mph 1018.7mb 52f 49f
10:30 3 8 mph 1018.9mb 52f 49f
10:24 5 9 mph 1018.9mb 52f 49f
10:18 6 8 mph - - -
10:12 3 9 mph 1019.1mb 52f 49f
10:06 5 10 mph 1018.8mb 52f 49f
10:00 6 11 mph 1019mb 52f 49f
9:54 6 9 mph 1019mb 52f 49f
9:48 5 11 mph 1018.9mb 52f 49f
9:42 6 9 mph 1018.9mb 52f 49f
9:36 3 8 mph 1018.9mb 52f 49f
9:30 8 14 mph 1018.9mb 52f 49f
9:24 9 14 mph 1018.9mb 52f 49f
9:18 8 14 mph 1019.5mb 52f 49f
9:12 6 10 mph 1019.4mb 52f 49f
9:06 6 10 mph 1019.4mb 52f 49f
9:00 7 10 mph 1019.2mb 52f 50f
8:54 9 10 mph 1019.3mb 52f 50f
8:48 5 10 mph - - -
8:42 6 9 mph 1019mb 52f 50f
8:36 6 15 mph 1019mb 52f 50f
8:30 7 11 mph 1018.9mb 52f 50f
8:24 8 11 mph 1018.7mb 51f 50f
8:18 6 11 mph 1018.8mb 51f 51f
8:12 8 14 mph 1018.6mb 51f 51f
8:06 6 13 mph 1018.6mb 51f 51f
8:00 8 14 mph 1018.6mb 51f 51f
7:54 6 14 mph 1018.5mb 51f 52f
7:48 7 11 mph 1018.5mb - -
7:42 7 10 mph 1018.5mb 51f 53f
7:36 7 11 mph 1018.4mb 51f 53f
7:30 9 14 mph 1018.3mb 51f 53f
7:24 6 11 mph 1018.4mb 51f 54f
7:18 7 11 mph 1018.1mb 50f 54f
7:12 8 13 mph 1018.1mb 50f 54f
7:06 8 14 mph 1017.8mb 50f 55f
7:00 8 11 mph 1017.6mb 50f 55f
6:54 8 11 mph 1017.6mb 50f 56f
6:48 11 15 mph 1017.4mb - -
6:42 10 16 mph 1017.4mb 50f 56f
6:36 8 14 mph 1017.3mb 50f 56f
6:30 10 15 mph 1017.3mb 50f 57f
6:24 11 15 mph 1017.2mb 50f 57f
6:18 9 14 mph 1017.2mb 50f 57f
6:12 11 15 mph 1017.5mb 49f 58f
6:06 10 14 mph 1017.5mb 49f 58f
6:00 9 13 mph 1017.6mb 49f 58f
5:54 8 11 mph 1017.6mb 49f 58f
5:48 7 11 mph 1017.6mb - -
5:42 7 11 mph 1017.6mb 49f 58f
5:36 9 14 mph 1017.6mb 49f 58f
5:30 9 13 mph 1017.7mb 49f 58f
5:24 9 13 mph 1017.6mb 49f 59f
5:18 9 14 mph 1017.6mb 49f 59f
5:12 14 16 mph 1017.5mb 49f 59f
5:06 14 15 mph 1017.4mb 49f 59f
5:00 11 16 mph 1017.4mb 49f 59f
4:54 11 17 mph 1017.4mb 49f 59f
4:48 13 17 mph 1017.4mb 49f 59f
4:42 13 16 mph 1017.3mb 49f 59f
4:36 11 18 mph 1017.2mb 49f 60f
4:30 14 16 mph 1017.2mb 49f 60f
4:24 8 15 mph 1017.1mb 49f 60f
4:18 11 14 mph 1017.1mb 49f 60f
4:12 11 14 mph 1017.1mb 49f 60f
4:06 13 16 mph 1017.1mb 49f 60f
4:00 11 16 mph 1016.9mb 49f 60f
3:54 9 11 mph 1017mb 49f 61f
3:48 10 13 mph 1017.1mb 49f 61f
3:42 10 14 mph 1017.1mb 49f 61f
3:36 11 14 mph 1016.9mb 49f 61f
3:30 9 13 mph 1017mb 49f 61f
3:24 10 14 mph 1017.1mb 49f 61f
3:18 10 13 mph 1017.1mb 49f 61f
3:12 8 10 mph 1017.2mb 49f 61f
3:06 8 9 mph 1017.2mb 49f 61f
3:00 5 9 mph 1017.3mb 49f 61f
2:54 8 13 mph 1017.3mb 49f 61f
2:48 8 13 mph 1017.2mb 49f 61f
2:42 9 11 mph 1017.2mb 49f 61f
2:36 7 10 mph 1017.4mb 49f 61f
2:30 8 10 mph 1017.5mb 49f 61f
2:24 8 9 mph 1017.4mb 49f 61f
2:18 8 9 mph 1017.3mb 49f 61f
2:12 6 8 mph 1017.3mb 49f 61f
2:06 8 10 mph 1017.4mb 49f 61f
2:00 6 8 mph 1017.4mb 49f 61f
1:54 5 7 mph 1017.5mb 49f 60f
1:48 3 7 mph 1017.4mb 49f 60f
1:42 5 7 mph 1017.3mb 49f 60f
1:36 8 11 mph 1017.4mb 49f 60f
1:30 7 10 mph 1017.4mb 49f 60f
1:24 3 10 mph 1017.4mb 49f 60f
1:18 9 11 mph 1017.3mb 49f 60f
1:12 3 10 mph 1017.4mb 49f 60f
1:06 6 10 mph 1017.6mb 49f 60f
1:00 6 9 mph 1017.6mb 49f 60f
12:54 8 10 mph 1017.7mb 49f 59f
12:48 8 10 mph 1017.7mb 50f 59f
12:42 5 9 mph 1017.7mb 50f 59f
12:36 8 10 mph 1017.7mb 51f 58f
12:30 6 14 mph 1017.7mb 51f 58f
12:24 8 11 mph 1017.8mb 51f 58f
12:18 8 13 mph 1017.9mb 51f 57f
12:12 9 11 mph 1017.9mb 51f 57f
12:06 7 9 mph 1018.2mb 51f 57f
12:00 6 9 mph 1018.3mb 51f 56f
11:54 6 9 mph 1018.4mb 51f 56f
11:48 8 9 mph 1018.4mb 51f 56f
11:42 5 7 mph 1018.5mb 51f 55f
11:36 5 6 mph 1018.6mb 51f 55f
11:30 1 3 mph 1018.7mb 51f 54f
11:24 2 5 mph 1018.9mb 51f 54f
11:18 2 6 mph 1018.8mb 51f 53f
11:12 5 7 mph 1019mb 51f 53f
11:06  -  2 mph 1019.3mb 51f 54f
11:00 1 3 mph 1019.3mb 51f 53f
10:54 2 5 mph 1019.2mb 51f 53f
10:48 2 3 mph 1019.3mb 51f 52f
10:42 3 5 mph 1019.2mb 51f 53f
10:36 3 6 mph 1019.1mb 51f 53f
10:30 6 7 mph 1019.2mb 51f 52f
10:24 3 6 mph 1019.3mb 51f 52f
10:18 3 8 mph 1019.4mb 51f 52f
10:12 5 9 mph 1019.4mb 51f 52f
10:06 8 10 mph 1019.5mb 51f 52f
10:00 5 7 mph 1019.5mb 51f 52f
9:54 5 8 mph 1019.5mb 51f 52f
9:48 6 10 mph 1019.6mb 51f 52f
9:42 5 6 mph 1019.6mb 51f 51f
9:36 5 7 mph 1019.6mb 51f 51f
9:30 5 8 mph 1019.7mb 51f 51f
9:24 6 8 mph 1019.5mb 51f 51f
9:18 3 6 mph 1019.5mb 51f 51f
9:12 2 7 mph 1019.5mb 51f 51f
9:06 5 7 mph 1019.4mb 51f 50f
9:00 7 9 mph 1019.6mb 51f 51f
8:54 3 5 mph 1019.6mb 51f 50f
8:48 3 5 mph 1019.7mb 51f 50f
8:42 2 5 mph 1019.7mb 51f 50f
8:36 3 5 mph 1019.7mb 51f 49f
8:30  -  5 mph 1019.8mb 51f 49f
8:24 2 5 mph 1019.7mb 51f 49f
8:18 2 3 mph 1019.6mb 51f 49f
8:12 1 3 mph 1019.6mb 51f 49f
8:06  -  3 mph 1019.6mb 51f 49f
8:00 1 2 mph 1019.6mb 51f 49f
7:54 2
mph
1019.5mb 51f 49f
7:48 3 5 mph - - -
7:42 3 5 mph 1019.7mb 51f 49f
7:36 2 5 mph 1019.6mb 51f 48f
7:30 2 5 mph 1019.6mb 51f 48f
7:24 2 3 mph 1019.7mb 51f 48f
7:18  -  1 mph 1019.8mb 51f 48f
7:12  -  3 mph 1019.7mb 51f 48f
7:06 2 3 mph 1019.6mb 50f 48f
7:00 3 5 mph 1019.7mb 50f 48f
6:54 3 6 mph 1019.8mb 50f 48f
6:48 3
mph
1019.8mb 50f 48f
6:42 3 5 mph 1019.8mb 50f 48f
6:36 3 5 mph 1019.9mb 50f 48f
6:30 3 5 mph 1019.8mb 50f 48f
6:24 3 5 mph 1019.9mb 50f 48f
6:18 2 3 mph 1019.9mb 50f 48f
6:12 1 5 mph 1019.9mb 50f 48f
6:06 3 5 mph 1019.9mb 50f 47f
6:00 5 6 mph 1019.9mb 50f 47f
5:54 7 8 mph 1019.6mb 50f 47f
5:48 7 9 mph 1019.5mb 50f 47f
5:42 6 8 mph 1019.7mb 49f 47f
5:36 7 8 mph 1019.7mb 49f 47f
5:30 6 8 mph 1019.7mb 49f 47f
5:24 7 8 mph 1019.7mb 49f 47f
5:18 6 9 mph 1019.8mb 49f 47f
5:12 6 7 mph 1020mb 49f 47f
5:06 5 8 mph 1020.2mb 49f 47f
5:00 5 6 mph 1020.2mb 49f 47f
4:54 6 7 mph 1020.2mb 49f 47f
4:48 5 8 mph 1020.2mb 49f 47f
4:42 5 7 mph 1020.3mb 49f 47f
4:36 6 9 mph 1020.3mb 49f 47f
4:30 6 8 mph 1020.5mb 49f 47f
4:24 7 9 mph 1020.6mb 49f 47f
4:18 8 11 mph 1020.7mb 49f 47f
4:12 7 11 mph 1020.8mb 49f 47f
4:06 8 9 mph 1020.8mb 49f 47f
4:00 7 10 mph 1020.8mb 49f 47f
3:54 8 10 mph 1020.9mb 49f 46f
3:48 6 8 mph 1021mb 49f 46f
3:42 7 8 mph 1021mb 49f 46f
3:36 7 9 mph 1021mb 49f 46f
3:30 6 9 mph 1021.1mb 49f 46f
3:24 5 8 mph 1021.1mb 49f 46f
3:18 8 9 mph 1021.1mb 49f 46f
3:12 6 9 mph 1021.2mb 49f 46f
3:06 7 10 mph 1021.3mb 49f 46f
3:00 7 9 mph 1021.3mb 49f 46f
2:54 6 8 mph 1021.4mb 49f 46f
2:48 6 9 mph 1021.5mb 49f 46f
2:42 5 8 mph 1021.5mb 49f 46f
2:36 6 10 mph 1021.5mb 49f 45f
2:30 8 10 mph 1021.6mb 49f 45f
2:24 7 10 mph 1021.6mb 49f 45f
2:18 8 13 mph 1021.7mb 49f 45f
2:12 6 10 mph 1021.9mb 49f 46f
2:06 9 10 mph 1022mb 49f 45f
2:00 7 10 mph 1022.2mb 49f 45f
1:54 9 11 mph 1022.4mb 49f 45f
1:48 8 10 mph 1022.6mb 49f -
1:42 7 11 mph 1022.7mb 49f -
1:36 7 13 mph 1022.7mb 49f -
1:30 8 10 mph 1023mb 49f 45f
1:24 7 10 mph 1023mb 49f 45f
1:18 8 11 mph 1023mb 49f 45f
1:12 7 11 mph 1023.1mb 49f 45f
1:06 7 11 mph 1023.1mb 49f 45f
1:00 8 10 mph 1023.1mb 49f 45f
12:54 9 14 mph 1023.2mb 49f 45f
12:48 10 15 mph 1023.3mb 49f 45f
12:42 10 14 mph 1023.3mb 49f 45f
12:36 13 16 mph 1023.4mb 49f 45f
12:30 10 16 mph 1023.5mb 49f 46f
12:24 8 14 mph 1023.5mb 49f 46f
12:18 10 17 mph 1023.5mb 49f 46f
12:12 10 17 mph 1023.6mb 49f 46f
12:06 13 20 mph 1023.5mb 49f 46f
12:00 15 18 mph 1023.5mb 49f 46f
Mi 04/19 11:54 11 21 mph 1023.8mb 49f 46f
11:48 11 21 mph - - -
11:42 10 20 mph 1023.8mb 49f 45f
11:36 10 18 mph 1023.8mb 49f 45f
11:30 14 21 mph 1023.9mb 49f 45f
11:24 9 17 mph 1024mb 49f 45f
11:18 15 20 mph 1024mb 49f 45f
11:12 10 21 mph 1024mb 49f 45f
11:06 10 20 mph 1024.2mb 49f 45f
11:00 8 14 mph 1024.3mb 49f 45f
10:54 9 13 mph 1024.4mb 49f 45f
10:48 8 15 mph 1024.6mb 49f 45f
10:42 11 18 mph 1024.6mb 49f 45f
10:36 11 17 mph 1024.6mb 49f 45f
10:30 13 18 mph 1024.7mb 49f 44f
10:24 13 17 mph 1024.7mb 49f 45f
10:18 10 16 mph 1025mb 49f 44f
10:12 10 16 mph 1025mb 49f 44f
10:06 16 21 mph 1024.8mb 50f 44f
10:00 9 17 mph 1024.9mb 50f 44f
9:54 11 17 mph 1024.8mb 50f 44f
9:48 13 18 mph 1024.9mb 50f 44f
9:42 16 23 mph 1024.9mb 50f 44f
9:36 11 20 mph 1025mb 50f 44f
9:30 16 21 mph 1025.2mb 50f 44f
9:24 15 21 mph 1025.2mb 50f 44f
9:18 17 21 mph - - -
9:12 16 21 mph 1025.4mb 50f 44f
9:06 14 20 mph 1025.5mb 50f 44f
9:00 10 16 mph 1026mb 50f 44f
8:54 14 18 mph 1026.1mb 50f 44f
8:48 11 16 mph 1026.1mb 50f 44f
8:42 13 17 mph 1026.3mb 50f 44f
8:36 14 18 mph 1026mb 50f 44f
8:30 10 16 mph 1026mb 50f 44f
8:24 7 13 mph 1026.2mb 50f 44f
8:18 10 16 mph - - -
8:12 13 18 mph 1026.1mb 50f 44f
8:06 14 18 mph 1026.1mb 50f 44f
8:00 15 22 mph 1026.4mb 50f 44f
7:54 11 17 mph 1026.5mb 50f 44f
7:48 15 20 mph 1026.6mb 50f 44f
7:42 10 16 mph 1026.6mb 50f 44f